메인 페이지
METAR-TAF:

METAR-TAF

공항 :

댈러스 포트워스 국제공항

댈러스 / 포트워스, 텍사스, 미국

위도: 32-53-49N, 경도: 097-01-19W, 고도: 183m

현재 날씨관측

예보는 1 시간 11분 전, 00:53시(UTC)에 발표되었습니다.
4kt
온도 24°C
습도 78%
기압 1011 hPa
시정: 16.1km
고도 7000ft 상공 구름 조금

METAR: KDFW 250053Z 18004KT 10SM FEW070 24/20 A2984 RMK AO2 SLP098 T02390200

시각: 21:04 (02:04 UTC)

예보

예보는 2 시간 38분 전, 23:26시(UTC)에 발표되었습니다.
예보 대상 시간: 25일 00시부터 26일 06시까지 (UTC)
6kt
시정: 10km
고도 6000ft 상공 구름 보통
25일 0900시부터 (UTC)
7kt
시정: 6.4km
고도 1500ft 상공 구름 보통
고도 4000ft 상공 구름 보통
박무
25일 1400시부터 (UTC)
10kt
시정: 10km
고도 5000ft 상공 구름 보통

TAF: KDFW 242326Z 2500/2606 18006KT P6SM SCT060 FM250900 18007KT 4SM BR SCT015 SCT040 FM251400 19010KT P6SM SCT050

4,000개 이상의 공항 관측 자료 및 예보 (METAR 및 TAF 보고).

지도상에서 검색 가능한 기상관측소가 노란 점과 빨간 점으로 표시되어 있습니다.

기상관측소 명을 보려면 표시 위로 마우스를 이동하세요.

날씨 관측과 예보를 보려면 클릭하세요.

지도 변경 : 확대하려면 엑스 표시가 있는 녹색 버튼, 축소하려면 빼기 표시가 있는 녹색 버튼, 다음 페이지의 지도를 보려면 녹색 화살표를 클릭하세요.


METAR-TAF: